Time;durP1;ratioP1;P1;durP2;ratioP2;P2;SDS_P1;SDS_P2;PMS_P1;PMS_P2;Temp;Humidity;BMP_temperature;BMP_pressure;BME280_temperature;BME280_humidity;BME280_pressure;Samples;Min_cycle;Max_cycle;Signal;HPM_P1;HPM_P2
2022/12/23 00:00:00;;;;;;;22.03;9.20;;;;;;;3.96;66.72;99049.41;6011033;23;20183;-89
2022/12/23 00:02:26;;;;;;;26.37;11.83;;;;;;;4.02;66.96;99057.88;6011129;23;20229;-89
2022/12/23 00:04:51;;;;;;;22.90;10.23;;;;;;;4.02;66.56;99057.88;5986314;23;20261;-89
2022/12/23 00:07:17;;;;;;;26.47;11.17;;;;;;;4.00;65.74;99053.63;6010979;23;20185;-89
2022/12/23 00:09:42;;;;;;;37.60;15.47;;;;;;;4.04;65.62;99058.69;6011061;23;20166;-89
2022/12/23 00:15:06;;;;;;;26.87;11.80;;;;;;;3.75;66.21;99052.59;6011718;23;20287;-89
2022/12/23 00:17:33;;;;;;;20.70;10.53;;;;;;;3.77;66.80;99054.25;6011351;23;20130;-89
2022/12/23 00:19:59;;;;;;;23.73;10.10;;;;;;;3.73;66.70;99050.03;5986361;23;20165;-89
2022/12/23 00:25:11;;;;;;;16.83;8.43;;;;;;;3.48;67.70;99043.81;6011852;23;20214;-89
2022/12/23 00:27:37;;;;;;;20.60;9.20;;;;;;;3.49;68.19;99042.91;6010907;23;20182;-89
2022/12/23 00:30:04;;;;;;;25.53;8.77;;;;;;;3.48;68.21;99043.81;6010952;23;20444;-89
2022/12/23 00:32:30;;;;;;;13.80;7.37;;;;;;;3.40;68.96;99050.91;6010949;23;20226;-89
2022/12/23 00:34:55;;;;;;;16.10;7.70;;;;;;;3.38;68.93;99047.53;5986234;23;20473;-89
2022/12/23 00:37:21;;;;;;;21.97;9.70;;;;;;;3.38;69.15;99037.16;6010937;23;20147;-89
2022/12/23 00:45:14;;;;;;;25.43;9.67;;;;;;;3.50;69.30;99040.28;6011203;23;20150;-89
2022/12/23 00:50:29;;;;;;;16.73;7.20;;;;;;;3.60;68.76;99033.09;6011167;23;20655;-89
2022/12/23 00:52:54;;;;;;;18.17;7.67;;;;;;;3.66;68.97;99038.13;5986163;23;20162;-89
2022/12/23 00:55:20;;;;;;;20.10;9.53;;;;;;;3.72;68.95;99030.22;5986281;23;20169;-89
2022/12/23 00:57:46;;;;;;;21.30;8.43;;;;;;;3.75;68.30;99024.09;5986125;23;20154;-89
2022/12/23 01:00:12;;;;;;;24.77;9.33;;;;;;;3.65;67.97;99026.06;5988035;23;20249;-89
2022/12/23 01:05:37;;;;;;;13.33;6.63;;;;;;;3.65;68.05;99018.28;6012760;23;20245;-89
2022/12/23 01:08:10;;;;;;;16.47;9.00;;;;;;;3.66;67.97;99017.41;6013082;23;20480;-89
2022/12/23 01:10:38;;;;;;;18.50;8.13;;;;;;;3.70;68.21;99012.09;6012732;23;20225;-89
2022/12/23 01:13:04;;;;;;;21.07;7.57;;;;;;;3.76;68.02;99016.25;6012582;23;20156;-89
2022/12/23 01:15:30;;;;;;;12.67;7.33;;;;;;;3.85;67.44;99003.06;6012893;23;20154;-89
2022/12/23 01:17:56;;;;;;;16.47;6.30;;;;;;;3.83;67.53;99010.00;6012878;23;20217;-89
2022/12/23 01:20:23;;;;;;;19.27;6.70;;;;;;;3.81;67.38;99003.16;6011371;23;20185;-89
2022/12/23 01:22:49;;;;;;;12.37;6.07;;;;;;;3.69;67.71;99005.19;6012535;23;20174;-89
2022/12/23 01:25:15;;;;;;;19.23;6.90;;;;;;;3.55;67.95;98998.69;6012515;23;20150;-89
2022/12/23 01:27:40;;;;;;;10.93;6.43;;;;;;;3.47;68.38;98995.44;6012684;23;20262;-89
2022/12/23 01:30:06;;;;;;;14.17;6.80;;;;;;;3.46;68.69;99001.53;6012813;23;20253;-89
2022/12/23 01:32:32;;;;;;;12.63;6.93;;;;;;;3.57;68.76;98995.16;6012478;23;20226;-89
2022/12/23 01:34:57;;;;;;;12.27;6.73;;;;;;;3.61;68.24;98994.22;6012266;23;20528;-89
2022/12/23 01:37:23;;;;;;;13.63;6.27;;;;;;;3.71;68.27;98990.47;6012375;23;20154;-89
2022/12/23 01:39:48;;;;;;;13.07;5.60;;;;;;;3.75;68.24;98993.81;5987747;23;20162;-89
2022/12/23 01:45:17;;;;;;;14.17;6.23;;;;;;;3.71;67.60;98997.41;6012637;23;20218;-89
2022/12/23 01:47:49;;;;;;;11.03;6.10;;;;;;;3.63;67.40;98992.44;6012537;23;20173;-89
2022/12/23 01:50:14;;;;;;;14.67;5.87;;;;;;;3.54;67.96;98986.63;6012633;23;20150;-89
2022/12/23 01:53:05;;;;;;;10.07;5.57;;;;;;;3.54;68.05;98994.38;5987647;23;20197;-89
2022/12/23 01:55:42;;;;;;;13.57;6.03;;;;;;;3.58;68.20;98983.94;5987266;23;20615;-89
2022/12/23 01:58:15;;;;;;;19.27;6.33;;;;;;;3.58;68.04;98983.06;5987535;23;20487;-89
2022/12/23 02:03:41;;;;;;;12.23;6.93;;;;;;;3.56;67.92;98982.28;6012812;23;20587;-89
2022/12/23 02:09:22;;;;;;;12.83;6.80;;;;;;;3.55;68.29;98972.78;6012304;23;20569;-89
2022/12/23 02:12:17;;;;;;;15.43;5.97;;;;;;;3.53;68.01;98967.66;6012150;23;20475;-89
2022/12/23 02:17:58;;;;;;;14.70;6.73;;;;;;;3.54;68.13;98971.06;6012409;23;20528;-89
2022/12/23 02:20:36;;;;;;;14.53;6.87;;;;;;;3.58;68.33;98972.72;5987446;23;20490;-89
2022/12/23 02:23:39;;;;;;;15.87;6.57;;;;;;;3.66;68.03;98968.16;6012633;23;20142;-89
2022/12/23 02:26:35;;;;;;;10.30;5.63;;;;;;;3.66;67.75;98973.34;6011916;23;20575;-89
2022/12/23 02:29:21;;;;;;;28.67;11.37;;;;;;;3.55;67.57;98971.06;6012433;23;20170;-89
2022/12/23 02:32:13;;;;;;;36.13;12.37;;;;;;;3.43;68.11;98973.13;5987542;23;20189;-89
2022/12/23 02:34:42;;;;;;;28.43;10.97;;;;;;;3.33;68.28;98969.91;5987342;23;20161;-89
2022/12/23 02:37:18;;;;;;;15.67;7.67;;;;;;;3.37;68.67;98968.94;6011857;23;20150;-89
2022/12/23 02:40:09;;;;;;;30.57;10.90;;;;;;;3.44;68.21;98969.63;6012258;23;20142;-89
2022/12/23 02:42:43;;;;;;;21.17;8.23;;;;;;;3.32;68.62;98963.03;6012821;23;20147;-89
2022/12/23 02:45:13;;;;;;;22.80;8.83;;;;;;;3.39;68.08;98967.16;6011809;23;20143;-88
2022/12/23 02:47:47;;;;;;;18.47;7.97;;;;;;;3.46;67.92;98963.50;6012119;23;20210;-89
2022/12/23 02:50:26;;;;;;;14.10;7.47;;;;;;;3.49;67.67;98963.44;6012358;23;20139;-88
2022/12/23 02:52:56;;;;;;;16.53;8.53;;;;;;;3.48;67.99;98966.06;6010547;23;20155;-88
2022/12/23 02:55:27;;;;;;;16.80;7.20;;;;;;;3.48;67.62;98966.06;5987002;23;20291;-89
2022/12/23 02:57:54;;;;;;;20.03;7.97;;;;;;;3.50;67.07;98962.56;6012366;23;20135;-89
2022/12/23 03:00:21;;;;;;;18.03;7.90;;;;;;;3.53;66.85;98964.22;5987112;23;20576;-88
2022/12/23 03:02:47;;;;;;;11.83;6.00;;;;;;;3.50;66.78;98964.28;6011605;23;20151;-89
2022/12/23 03:05:32;;;;;;;15.23;7.00;;;;;;;3.44;66.41;98961.84;6011355;23;20208;-89
2022/12/23 03:08:01;;;;;;;10.90;6.87;;;;;;;3.44;66.74;98959.25;6011943;23;20174;-89
2022/12/23 03:10:34;;;;;;;15.93;7.57;;;;;;;3.45;66.64;98964.41;6011889;23;20155;-89
2022/12/23 03:13:09;;;;;;;22.50;9.37;;;;;;;3.44;66.29;98960.13;6011917;23;20234;-89
2022/12/23 03:15:35;;;;;;;19.83;7.80;;;;;;;3.36;65.95;98956.03;6010490;23;20161;-89
2022/12/23 03:18:16;;;;;;;27.53;9.87;;;;;;;3.28;65.96;98957.97;6011534;23;20147;-88
2022/12/23 03:20:55;;;;;;;20.80;7.73;;;;;;;3.24;65.77;98964.13;6011743;23;20233;-88
2022/12/23 03:23:33;;;;;;;20.83;9.13;;;;;;;3.20;65.47;98965.94;6011332;23;20143;-89
2022/12/23 03:26:22;;;;;;;19.33;9.10;;;;;;;3.18;65.81;98967.72;5986914;23;20213;-89
2022/12/23 03:28:55;;;;;;;16.13;7.97;;;;;;;3.18;65.40;98966.88;6011056;23;20187;-89
2022/12/23 03:31:27;;;;;;;19.73;8.83;;;;;;;3.24;65.40;98962.38;6011722;23;20270;-88
2022/12/23 03:34:00;;;;;;;27.33;8.37;;;;;;;3.30;65.57;98966.56;6011990;23;20485;-88
2022/12/23 03:36:32;;;;;;;15.63;9.33;;;;;;;3.30;65.44;98957.03;6011415;23;20611;-88
2022/12/23 03:39:01;;;;;;;13.53;7.67;;;;;;;3.27;64.89;98966.63;6011673;23;20135;-89
2022/12/23 03:41:32;;;;;;;21.17;9.53;;;;;;;3.19;64.88;98963.41;6011820;23;20242;-89
2022/12/23 03:44:05;;;;;;;20.17;8.33;;;;;;;3.07;64.85;98947.28;6011596;23;20671;-88
2022/12/23 03:46:37;;;;;;;14.23;7.23;;;;;;;2.95;64.78;98947.59;6011308;23;20139;-89
2022/12/23 03:49:06;;;;;;;20.53;8.60;;;;;;;2.96;65.17;98957.03;6011137;23;20232;-88
2022/12/23 03:51:38;;;;;;;19.43;7.07;;;;;;;2.95;65.22;98949.34;6011169;23;20461;-88
2022/12/23 03:54:14;;;;;;;39.30;10.33;;;;;;;2.89;65.32;98949.47;6011439;23;20143;-89
2022/12/23 03:56:44;;;;;;;15.10;6.93;;;;;;;2.90;65.61;98952.03;6011520;23;20206;-88
2022/12/23 03:59:18;;;;;;;19.63;6.90;;;;;;;2.90;65.76;98946.88;6011498;23;20153;-88
2022/12/23 04:02:06;;;;;;;18.60;7.70;;;;;;;2.88;65.18;98942.63;5986629;23;20230;-89
2022/12/23 04:04:59;;;;;;;20.67;7.47;;;;;;;2.76;65.21;98933.41;5986336;23;20146;-88
2022/12/23 04:07:33;;;;;;;18.27;6.77;;;;;;;2.80;65.35;98944.53;6011337;23;20211;-89
2022/12/23 04:09:59;;;;;;;14.47;6.77;;;;;;;2.80;65.26;98949.72;6011445;23;20270;-88
2022/12/23 04:12:26;;;;;;;15.97;7.17;;;;;;;2.77;65.17;98939.44;6011654;23;20151;-88
2022/12/23 04:14:52;;;;;;;16.93;6.80;;;;;;;2.81;65.25;98941.91;6011264;23;20201;-89
2022/12/23 04:17:18;;;;;;;14.20;7.70;;;;;;;2.88;65.08;98945.22;6011051;23;20221;-89
2022/12/23 04:19:44;;;;;;;14.37;6.50;;;;;;;2.93;64.61;98946.78;6011239;23;20540;-88
2022/12/23 04:22:11;;;;;;;19.17;6.27;;;;;;;2.80;64.63;98947.13;6010952;23;20238;-89
2022/12/23 04:24:37;;;;;;;14.87;6.67;;;;;;;2.68;64.70;98939.66;6011235;23;20178;-89
2022/12/23 04:27:03;;;;;;;16.07;5.63;;;;;;;2.65;65.05;98935.41;6009434;23;20297;-89
2022/12/23 04:29:28;;;;;;;18.30;7.70;;;;;;;2.56;65.83;98939.94;6011243;23;20190;-89
2022/12/23 04:31:54;;;;;;;25.70;10.87;;;;;;;2.49;66.13;98941.81;6010944;23;20310;-89
2022/12/23 04:34:19;;;;;;;16.77;8.80;;;;;;;2.58;66.28;98945.94;6010973;23;20155;-88
2022/12/23 04:36:44;;;;;;;19.30;8.83;;;;;;;2.65;66.39;98939.72;6010926;23;20160;-88
2022/12/23 04:39:10;;;;;;;26.20;9.37;;;;;;;2.67;66.09;98944.00;5986369;23;20173;-89
2022/12/23 04:41:35;;;;;;;24.90;9.47;;;;;;;2.59;66.66;98951.09;6011222;23;20161;-88
2022/12/23 04:44:01;;;;;;;20.93;9.17;;;;;;;2.63;66.57;98951.84;6010798;23;20150;-88
2022/12/23 04:46:26;;;;;;;18.47;8.90;;;;;;;2.57;66.62;98952.00;6011369;23;20154;-88
2022/12/23 04:48:51;;;;;;;25.00;10.33;;;;;;;2.57;66.34;98947.66;6010765;23;20261;-88
2022/12/23 04:51:17;;;;;;;23.97;10.43;;;;;;;2.47;66.61;98946.19;6011103;23;20214;-88
2022/12/23 04:53:42;;;;;;;18.00;7.20;;;;;;;2.42;66.64;98948.03;6011459;23;20151;-88
2022/12/23 04:56:08;;;;;;;16.83;8.70;;;;;;;2.46;66.88;98954.84;6010779;23;20483;-89
2022/12/23 04:58:33;;;;;;;14.63;7.80;;;;;;;2.49;67.29;98957.34;5986286;23;20568;-88
2022/12/23 05:01:07;;;;;;;14.13;7.90;;;;;;;2.50;67.23;98948.69;6011105;23;20551;-89
2022/12/23 05:03:32;;;;;;;18.33;6.57;;;;;;;2.46;68.06;98954.84;6011132;23;20202;-89
2022/12/23 05:05:58;;;;;;;13.83;5.93;;;;;;;2.55;67.78;98954.63;6011406;23;20174;-89
2022/12/23 05:08:23;;;;;;;16.63;7.00;;;;;;;2.54;67.91;98952.06;6011241;23;20178;-89
2022/12/23 05:10:49;;;;;;;14.00;5.10;;;;;;;2.52;68.17;98949.50;6011025;23;20154;-89
2022/12/23 05:13:14;;;;;;;17.93;7.00;;;;;;;2.60;68.04;98951.91;6010775;23;20182;-88
2022/12/23 05:15:43;;;;;;;15.37;6.50;;;;;;;2.66;68.13;98955.22;6010982;23;20666;-89
2022/12/23 05:18:09;;;;;;;11.50;6.20;;;;;;;2.77;67.49;98955.81;6010904;23;20177;-89
2022/12/23 05:20:34;;;;;;;12.10;5.37;;;;;;;2.76;67.40;98955.84;6010684;23;20151;-88
2022/12/23 05:23:00;;;;;;;12.13;6.03;;;;;;;2.67;67.21;98950.91;5986058;23;20167;-89
2022/12/23 05:25:25;;;;;;;14.20;6.83;;;;;;;2.65;66.79;98950.91;5986148;23;20158;-88
2022/12/23 05:27:51;;;;;;;17.30;7.73;;;;;;;2.66;67.43;98962.97;6010549;23;20182;-89
2022/12/23 05:30:16;;;;;;;14.10;6.80;;;;;;;2.64;66.95;98961.31;6010655;23;20588;-89
2022/12/23 05:32:42;;;;;;;11.90;5.40;;;;;;;2.60;67.18;98957.94;6010926;23;20462;-88
2022/12/23 05:35:07;;;;;;;17.37;5.03;;;;;;;2.59;67.76;98948.50;6010611;23;20165;-89
2022/12/23 05:37:33;;;;;;;11.67;5.17;;;;;;;2.70;67.35;98949.06;6010917;23;20151;-88
2022/12/23 05:39:58;;;;;;;12.93;5.67;;;;;;;2.78;66.81;98959.22;6010624;23;20150;-88
2022/12/23 05:42:24;;;;;;;12.80;5.83;;;;;;;2.78;67.60;98960.09;6010699;23;20304;-89
2022/12/23 05:44:49;;;;;;;15.80;6.83;;;;;;;2.86;67.22;98955.59;6011878;23;20161;-88
2022/12/23 05:47:15;;;;;;;15.90;6.63;;;;;;;2.90;67.35;98967.56;6012772;23;20233;-88
2022/12/23 05:49:40;;;;;;;15.23;6.57;;;;;;;2.93;66.99;98966.66;5987767;23;20158;-89
2022/12/23 05:52:05;;;;;;;13.07;6.43;;;;;;;2.99;66.65;98967.31;6012274;23;20150;-89
2022/12/23 05:54:31;;;;;;;11.20;5.80;;;;;;;3.05;66.68;98974.94;6012294;23;20154;-89
2022/12/23 05:56:56;;;;;;;18.13;6.57;;;;;;;3.07;66.72;98974.91;6012202;23;20522;-89
2022/12/23 05:59:22;;;;;;;12.67;5.40;;;;;;;3.10;66.16;98972.25;6012274;23;20505;-89
2022/12/23 06:01:47;;;;;;;17.47;7.17;;;;;;;3.13;66.26;98972.16;6012160;23;20154;-89
2022/12/23 06:04:12;;;;;;;14.47;6.60;;;;;;;3.17;66.61;98971.19;6012148;23;20473;-89
2022/12/23 06:06:38;;;;;;;12.87;6.10;;;;;;;3.23;66.37;98965.00;6012271;23;20507;-89
2022/12/23 06:09:03;;;;;;;19.97;6.37;;;;;;;3.29;65.98;98972.63;6012330;23;20190;-89
2022/12/23 06:11:30;;;;;;;14.87;6.23;;;;;;;3.32;66.34;98965.63;6012047;23;20186;-89
2022/12/23 06:13:55;;;;;;;14.00;7.27;;;;;;;3.34;66.47;98973.34;6012162;23;20237;-89
2022/12/23 06:16:21;;;;;;;17.57;7.40;;;;;;;3.40;66.33;98978.38;5987454;23;20158;-89
2022/12/23 06:18:46;;;;;;;19.00;8.10;;;;;;;3.46;66.57;98973.88;5987476;23;20258;-89
2022/12/23 06:21:12;;;;;;;17.20;8.53;;;;;;;3.53;66.98;98974.56;6012056;23;20481;-89
2022/12/23 06:23:37;;;;;;;23.20;10.43;;;;;;;3.59;66.77;98977.84;6012075;23;20159;-89
2022/12/23 06:26:03;;;;;;;18.50;9.03;;;;;;;3.67;67.19;98977.63;6011216;23;20195;-88
2022/12/23 06:28:29;;;;;;;15.47;6.77;;;;;;;3.73;66.95;98985.22;6012626;23;20186;-89
2022/12/23 06:30:56;;;;;;;22.10;9.43;;;;;;;3.84;67.06;98988.38;6012384;23;20155;-89
2022/12/23 06:33:23;;;;;;;25.70;9.47;;;;;;;3.97;66.89;98996.66;6011946;23;20155;-89
2022/12/23 06:35:48;;;;;;;16.40;7.67;;;;;;;4.12;67.42;98991.03;6011953;23;20161;-89
2022/12/23 06:38:14;;;;;;;19.77;8.50;;;;;;;4.24;67.15;98981.16;5987367;23;20150;-89
2022/12/23 06:40:40;;;;;;;14.63;7.83;;;;;;;4.42;66.61;98978.91;5987392;23;20154;-89
2022/12/23 06:43:05;;;;;;;18.23;7.33;;;;;;;4.57;66.85;98973.25;6011935;23;20233;-89
2022/12/23 06:45:31;;;;;;;23.07;10.57;;;;;;;4.85;66.54;98974.91;6011862;23;20481;-89
2022/12/23 06:47:56;;;;;;;30.70;12.73;;;;;;;5.15;65.43;98970.47;6011730;23;20249;-89
2022/12/23 06:50:22;;;;;;;66.40;21.23;;;;;;;5.37;64.61;98973.22;6011837;23;20562;-89
2022/12/23 06:52:47;;;;;;;45.10;17.00;;;;;;;5.42;63.31;98977.31;6011803;23;20489;-89
2022/12/23 06:55:14;;;;;;;33.40;14.23;;;;;;;5.45;63.00;98982.41;6012083;23;20217;-90
2022/12/23 06:57:39;;;;;;;30.13;13.93;;;;;;;5.54;62.53;98981.25;6011880;23;20567;-90
2022/12/23 07:00:06;;;;;;;33.43;13.70;;;;;;;5.68;62.04;98975.56;6011775;23;20164;-89
2022/12/23 07:02:32;;;;;;;46.30;14.00;;;;;;;5.69;62.04;98979.84;6011736;23;20171;-89
2022/12/23 07:04:57;;;;;;;30.43;14.93;;;;;;;5.66;62.14;98982.59;5986979;23;20231;-90
2022/12/23 07:07:23;;;;;;;36.23;16.70;;;;;;;5.64;62.49;98976.56;5987191;23;20191;-90
2022/12/23 07:09:48;;;;;;;39.97;16.23;;;;;;;5.63;62.90;98985.28;5987161;23;20237;-91
2022/12/23 07:12:14;;;;;;;30.87;14.90;;;;;;;5.64;63.07;98986.97;6012049;23;20185;-91
2022/12/23 07:14:39;;;;;;;29.80;12.90;;;;;;;5.67;62.87;98982.53;6011772;23;20162;-90
2022/12/23 07:17:05;;;;;;;36.27;14.23;;;;;;;5.67;62.93;98986.88;5987250;23;20591;-90
2022/12/23 07:19:30;;;;;;;30.20;13.90;;;;;;;5.71;63.04;98988.47;6012291;23;20158;-90
2022/12/23 07:21:55;;;;;;;23.73;12.07;;;;;;;5.67;62.77;98986.88;6012247;23;20156;-89
2022/12/23 07:24:21;;;;;;;33.47;14.83;;;;;;;5.64;62.28;98980.03;6010318;23;20172;-90
2022/12/23 07:26:46;;;;;;;33.10;14.33;;;;;;;5.64;62.32;98981.78;6011455;23;20167;-89
2022/12/23 07:29:12;;;;;;;26.27;13.40;;;;;;;5.69;62.22;98982.44;6011408;23;20183;-90
2022/12/23 07:31:38;;;;;;;33.53;15.20;;;;;;;5.72;62.20;98990.16;6012098;23;20157;-89
2022/12/23 07:34:03;;;;;;;31.73;15.63;;;;;;;5.75;62.01;98990.06;6011705;23;20229;-90
2022/12/23 07:36:28;;;;;;;52.67;19.43;;;;;;;5.71;61.92;98991.06;6011452;23;20156;-90
2022/12/23 07:38:54;;;;;;;45.03;19.43;;;;;;;5.70;61.78;98991.97;6011375;23;20153;-89
2022/12/23 07:41:19;;;;;;;50.20;25.63;;;;;;;5.70;61.50;98991.97;6011726;23;20505;-90
2022/12/23 07:43:45;;;;;;;54.03;27.27;;;;;;;5.80;61.41;98994.19;6011377;23;20193;-90
2022/12/23 07:46:11;;;;;;;55.77;26.90;;;;;;;5.87;61.37;98994.88;6011377;23;20162;-90
2022/12/23 07:49:07;;;;;;;50.13;22.30;;;;;;;5.89;61.78;98986.09;6010174;23;20183;-90
2022/12/23 07:51:32;;;;;;;37.97;19.27;;;;;;;5.95;62.36;98998.00;5986672;23;20160;-91
2022/12/23 07:53:57;;;;;;;39.93;17.13;;;;;;;6.01;62.58;98993.44;6011742;23;20158;-90
2022/12/23 07:56:23;;;;;;;39.87;17.60;;;;;;;6.06;62.64;98988.06;5987039;23;20204;-91
2022/12/23 07:58:50;;;;;;;40.73;17.73;;;;;;;6.14;62.88;98999.03;5987158;23;20488;-91
2022/12/23 08:01:17;;;;;;;34.37;16.07;;;;;;;6.22;62.40;99001.38;5986870;23;20158;-91
2022/12/23 08:03:42;;;;;;;40.30;17.07;;;;;;;6.23;62.48;99003.06;5986763;23;20218;-90
2022/12/23 08:06:11;;;;;;;38.87;17.87;;;;;;;6.26;62.53;99003.81;5986549;23;20180;-90
2022/12/23 08:08:38;;;;;;;40.40;17.47;;;;;;;6.31;62.48;98996.69;6010729;23;20210;-91
2022/12/23 08:11:06;;;;;;;42.90;19.47;;;;;;;6.34;62.77;99001.75;5986727;23;20162;-90
2022/12/23 08:13:33;;;;;;;51.13;21.53;;;;;;;6.44;63.03;98997.91;6011386;23;20222;-90
2022/12/23 08:16:00;;;;;;;46.17;23.43;;;;;;;6.54;63.06;98994.03;5986587;23;20240;-90
2022/12/23 08:19:01;;;;;;;45.40;21.50;;;;;;;6.62;63.00;98993.75;5986659;23;20151;-90
2022/12/23 08:21:26;;;;;;;38.30;18.10;;;;;;;6.69;63.46;98992.59;5930633;24;20506;-91
2022/12/23 08:23:52;;;;;;;34.83;18.30;;;;;;;6.77;63.62;98995.75;5975075;23;20158;-90
2022/12/23 08:26:20;;;;;;;46.77;21.97;;;;;;;6.90;63.84;98994.34;6011227;23;20150;-91
2022/12/23 08:28:47;;;;;;;54.60;25.67;;;;;;;7.05;63.80;98992.91;6010061;23;20257;-91
2022/12/23 08:31:14;;;;;;;49.47;23.30;;;;;;;7.06;64.09;98981.53;5986284;23;20463;-90
2022/12/23 08:33:42;;;;;;;49.60;22.63;;;;;;;7.20;65.08;98989.66;6011337;23;20225;-91
2022/12/23 08:36:11;;;;;;;52.60;23.63;;;;;;;7.33;64.81;98986.47;6011163;23;20157;-91
2022/12/23 08:38:36;;;;;;;62.57;26.47;;;;;;;7.54;64.86;98984.72;5986706;23;20158;-91
2022/12/23 08:41:02;;;;;;;55.23;27.80;;;;;;;7.58;65.72;98983.66;6011132;23;20161;-91
2022/12/23 08:43:27;;;;;;;46.83;22.33;;;;;;;7.69;64.37;98976.22;6011086;23;20464;-91
2022/12/23 08:45:53;;;;;;;47.00;20.27;;;;;;;7.73;64.46;98977.78;6011130;23;20229;-90
2022/12/23 08:48:19;;;;;;;47.43;17.50;;;;;;;7.89;64.20;98972.72;5986454;23;20261;-90
2022/12/23 08:50:45;;;;;;;30.80;15.30;;;;;;;8.06;63.86;98967.63;6011680;23;20172;-90
2022/12/23 08:53:12;;;;;;;32.27;15.00;;;;;;;8.12;62.68;98961.28;5987012;23;20476;-91
2022/12/23 08:55:43;;;;;;;34.03;14.13;;;;;;;8.21;62.28;98956.47;5987028;23;20158;-91
2022/12/23 08:58:09;;;;;;;31.57;15.27;;;;;;;8.33;61.95;98955.13;6011165;23;20139;-90
2022/12/23 09:00:36;;;;;;;33.83;17.00;;;;;;;8.21;62.06;98955.63;5986436;23;20186;-91
2022/12/23 09:03:01;;;;;;;39.20;17.80;;;;;;;8.28;61.81;98957.09;5986397;23;20159;-91
2022/12/23 09:05:27;;;;;;;40.17;19.43;;;;;;;8.37;61.17;98951.44;5986158;23;20184;-90
2022/12/23 09:07:53;;;;;;;42.23;20.80;;;;;;;8.53;60.86;98947.19;6010829;23;20258;-90
2022/12/23 09:10:18;;;;;;;61.33;24.27;;;;;;;8.63;59.85;98945.81;6011252;23;20151;-89
2022/12/23 09:12:44;;;;;;;59.80;24.57;;;;;;;8.73;59.34;98939.22;6010856;23;20221;-89
2022/12/23 09:15:10;;;;;;;44.13;23.07;;;;;;;8.97;59.63;98942.41;6011494;23;20236;-91
2022/12/23 09:17:35;;;;;;;49.00;21.93;;;;;;;9.11;58.34;98943.44;6011153;23;20151;-90
2022/12/23 09:20:01;;;;;;;53.47;20.57;;;;;;;9.34;58.65;98933.59;6011506;23;20156;-90
2022/12/23 09:22:26;;;;;;;37.87;19.97;;;;;;;9.51;57.70;98933.59;5988261;23;20161;-90
2022/12/23 09:24:52;;;;;;;45.83;19.50;;;;;;;9.73;55.71;98918.44;5988095;23;20302;-90
2022/12/23 09:27:19;;;;;;;44.70;20.13;;;;;;;9.94;55.35;98916.47;5988142;23;20172;-90
2022/12/23 09:29:44;;;;;;;37.80;15.33;;;;;;;10.12;55.65;98913.75;6013117;23;20158;-89
2022/12/23 09:32:10;;;;;;;39.93;16.03;;;;;;;10.38;54.35;98907.91;6013234;23;20180;-90
2022/12/23 09:34:35;;;;;;;34.33;14.90;;;;;;;10.47;50.70;98907.44;5988099;23;20166;-90
2022/12/23 09:37:02;;;;;;;27.73;14.93;;;;;;;10.36;50.19;98901.94;5988129;23;20471;-90
2022/12/23 09:39:27;;;;;;;27.40;12.17;;;;;;;10.50;50.69;98909.03;5989325;23;20169;-90
2022/12/23 09:42:31;;;;;;;26.73;12.53;;;;;;;10.70;48.72;98915.75;5988031;23;20159;-90
2022/12/23 09:45:03;;;;;;;26.13;12.60;;;;;;;10.79;49.51;98912.63;5979577;23;20168;-90
2022/12/23 09:47:32;;;;;;;34.33;14.30;;;;;;;10.63;48.87;98904.78;5988008;23;20155;-90
2022/12/23 09:50:01;;;;;;;33.17;15.27;;;;;;;10.69;50.02;98906.22;6012733;23;20448;-90
2022/12/23 09:52:43;;;;;;;34.77;16.30;;;;;;;10.96;51.50;98912.50;5988038;23;20547;-90
2022/12/23 09:55:11;;;;;;;36.53;15.63;;;;;;;11.17;49.86;98900.75;5987986;23;20143;-90
2022/12/23 09:57:57;;;;;;;32.57;15.97;;;;;;;11.46;50.03;98902.50;5987982;23;20157;-90
2022/12/23 10:00:23;;;;;;;24.77;12.40;;;;;;;11.71;51.36;98889.59;6012852;23;20136;-90
2022/12/23 10:03:18;;;;;;;24.17;10.63;;;;;;;12.01;48.77;98891.28;5988003;23;20250;-91
2022/12/23 10:05:59;;;;;;;28.30;12.13;;;;;;;12.14;49.73;98892.22;5981453;23;20595;-90
2022/12/23 10:08:36;;;;;;;24.20;11.70;;;;;;;12.26;49.11;98878.31;5987775;23;20649;-91
2022/12/23 10:11:21;;;;;;;39.63;16.40;;;;;;;12.29;48.69;98875.47;5988216;23;20146;-91
2022/12/23 10:13:58;;;;;;;27.87;14.90;;;;;;;12.42;49.05;98870.28;6011656;23;20222;-90
2022/12/23 10:16:40;;;;;;;28.33;15.27;;;;;;;12.58;47.73;98871.81;5987703;23;20229;-91
2022/12/23 10:19:19;;;;;;;37.60;16.10;;;;;;;12.64;47.38;98868.78;6012372;23;20211;-90
2022/12/23 10:21:50;;;;;;;32.63;15.43;;;;;;;12.71;47.03;98862.19;6012740;23;20162;-90
2022/12/23 10:24:19;;;;;;;33.13;16.57;;;;;;;12.99;45.88;98860.38;5987842;23;20569;-90
2022/12/23 10:26:59;;;;;;;32.67;16.60;;;;;;;13.13;45.91;98862.97;5987614;23;20208;-90
2022/12/23 10:29:29;;;;;;;33.43;16.17;;;;;;;13.15;45.80;98861.06;5987675;23;20180;-91
2022/12/23 10:32:32;;;;;;;35.93;16.57;;;;;;;13.19;44.90;98852.88;6011563;23;20157;-90
2022/12/23 10:35:37;;;;;;;40.00;17.23;;;;;;;13.09;44.25;98856.22;6012588;23;20150;-91
2022/12/23 10:38:21;;;;;;;37.77;18.30;;;;;;;13.15;42.90;98861.06;6012717;23;20162;-89
2022/12/23 10:41:07;;;;;;;34.63;16.83;;;;;;;12.85;43.06;98853.41;6012448;23;20217;-90
2022/12/23 10:44:10;;;;;;;37.00;18.20;;;;;;;13.14;43.79;98851.47;6012545;23;20228;-90
2022/12/23 10:47:00;;;;;;;33.60;16.93;;;;;;;13.55;43.60;98844.22;5988439;23;20158;-90
2022/12/23 10:49:44;;;;;;;38.83;17.40;;;;;;;13.76;42.83;98847.16;5987506;23;20179;-90
2022/12/23 10:52:09;;;;;;;42.67;18.83;;;;;;;13.82;41.86;98842.31;5987562;23;20151;-90
2022/12/23 10:54:36;;;;;;;33.57;16.60;;;;;;;14.02;42.05;98838.25;6012058;23;20230;-90
2022/12/23 10:57:05;;;;;;;37.97;16.83;;;;;;;14.29;42.05;98841.56;5987721;23;20162;-90
2022/12/23 10:59:33;;;;;;;34.83;14.80;;;;;;;14.42;41.03;98842.38;6011908;23;20158;-90
2022/12/23 11:02:14;;;;;;;31.47;14.97;;;;;;;14.48;40.26;98838.47;6012271;23;20151;-90
2022/12/23 11:04:49;;;;;;;35.00;14.33;;;;;;;14.46;39.16;98840.38;5987285;23;20174;-89
2022/12/23 11:07:24;;;;;;;35.63;14.90;;;;;;;14.55;39.67;98843.16;6012573;23;20146;-90
2022/12/23 11:10:03;;;;;;;28.00;13.73;;;;;;;14.72;39.77;98834.03;5987665;23;20157;-90
2022/12/23 11:12:50;;;;;;;26.97;13.87;;;;;;;15.00;40.36;98828.38;5987291;23;20152;-89
2022/12/23 11:15:39;;;;;;;21.03;10.63;;;;;;;15.14;40.51;98830.81;5987401;23;20568;-90
2022/12/23 11:18:11;;;;;;;24.07;12.37;;;;;;;15.24;40.16;98837.06;6012522;23;20534;-90
2022/12/23 11:20:38;;;;;;;22.70;10.57;;;;;;;15.25;40.19;98828.16;5987175;23;20564;-90
2022/12/23 11:23:05;;;;;;;18.87;10.20;;;;;;;15.36;39.96;98836.13;6012057;23;20189;-90
2022/12/23 11:25:42;;;;;;;18.40;9.63;;;;;;;15.25;40.63;98827.34;6011983;23;20165;-90
2022/12/23 11:28:15;;;;;;;20.77;9.70;;;;;;;15.49;40.42;98824.66;5986992;23;20515;-90
2022/12/23 11:30:54;;;;;;;21.13;9.63;;;;;;;15.58;40.20;98821.28;5987237;23;20231;-90
2022/12/23 11:33:32;;;;;;;17.10;9.60;;;;;;;15.46;40.39;98822.25;5987217;23;20573;-90
2022/12/23 11:36:13;;;;;;;16.70;9.10;;;;;;;15.57;40.70;98816.94;5987819;23;20152;-90
2022/12/23 11:38:52;;;;;;;21.27;8.93;;;;;;;15.50;40.58;98813.13;5988003;23;20151;-90
2022/12/23 11:41:33;;;;;;;19.60;9.97;;;;;;;15.66;39.65;98808.31;6012001;23;20144;-89
2022/12/23 11:44:17;;;;;;;15.50;9.20;;;;;;;15.41;39.33;98811.16;6011576;23;20217;-90
2022/12/23 11:46:45;;;;;;;26.63;10.27;;;;;;;15.21;39.90;98817.97;6012164;23;20233;-89
2022/12/23 11:49:18;;;;;;;18.47;8.43;;;;;;;15.36;39.43;98817.63;6011638;23;20678;-90
2022/12/23 11:51:47;;;;;;;20.83;10.20;;;;;;;15.34;39.81;98821.34;5987301;23;20158;-90
2022/12/23 11:54:19;;;;;;;17.57;8.47;;;;;;;15.45;40.10;98816.09;6011445;23;20580;-90
2022/12/23 11:56:50;;;;;;;23.90;9.87;;;;;;;15.58;39.92;98808.09;6011232;23;20572;-90
2022/12/23 11:59:32;;;;;;;19.50;8.63;;;;;;;15.48;39.08;98805.31;6011421;23;20156;-90
2022/12/23 12:02:01;;;;;;;20.33;9.03;;;;;;;15.53;38.99;98803.16;6011342;23;20151;-90
2022/12/23 12:04:31;;;;;;;18.20;8.60;;;;;;;15.56;38.79;98810.84;5986889;23;20167;-90
2022/12/23 12:06:58;;;;;;;23.00;9.17;;;;;;;15.60;38.20;98811.44;6011726;23;20139;-90
2022/12/23 12:09:28;;;;;;;17.40;8.40;;;;;;;15.61;38.93;98802.56;5987011;23;20194;-90